Aérodrome :
LOGIN :

S'inscrire | Disclaimer

   EN    FR    IT 

 










Légende :    VFR   VFR Marginal   IFR   IFR Intensif   IFR Très Intensif
Visi : 
Plafond : 
>= 8 km
>= 3000ft
5 à 8 km
1000 à 3000 ft
1500m à 5 km
500 à 1000 ft
800 à 1500m
200 à 500 ft
< 800m
< 200 ft
Symboles :   Orages  Brouillard  Fortes neiges  Fortes précipitations  Vent > 20 kt
SIGMETs :   Divers  Orages  Givrage  Turbulence  Onde Orograph.  Cendres Volcan.






- Altitude de l'aérodrome : 915 ft
- Code IATA : LUG


LSZA - Lugano

DERNIER METAR :
  • 110850Z VRB02KT CAVOK 01/M04 Q1019 NOSIG

METARs EXPIRÉS :
  • 110820Z 36003KT CAVOK M00/M04 Q1019 NOSIG
  • 110750Z 36004KT CAVOK M02/M04 Q1019 NOSIG
  • 110720Z 01002KT CAVOK M02/M04 Q1019 NOSIG
  • 110650Z VRB01KT CAVOK M02/M05 Q1019 NOSIG
  • 110620Z VRB02KT CAVOK M02/M05 Q1019 NOSIG

TAF TAF LSZA
Valide du 11 à 09h jusqu'au 11 à 18h UTC


110825Z 1109/1118 VRB03KT CAVOK
BECMG 1112/1115 9999 BKN110
ATIS : +41 22 417 40 88



MET'MAP, la Météo Aéronautique d'un coup d'oeil ! - Copyright ORBIFLY Décembre 2007 - Disclaimer

ORBIFLY MET'MAP TEAM :

Programmation & Développement : Alexandra Zaïnal
Sur une idée originale de : Baudouin d'Aumeries
Assistance à la programmation : Marc-Olivier Méhu
Soutien technique & logistique : Manuel Goepfert

Contact : metmap@orbifly.com




SOURCES & CREDITS :

   NOAA